createdAt,value
2022-08-29T00:02:16.742Z,24.85
2022-08-29T00:04:43.131Z,24.76
2022-08-29T00:07:09.444Z,24.65
2022-08-29T00:09:35.813Z,24.57
2022-08-29T00:12:02.183Z,24.50
2022-08-29T00:14:28.581Z,24.45
2022-08-29T00:16:54.977Z,24.43
2022-08-29T00:19:21.326Z,24.45
2022-08-29T00:21:47.687Z,24.44
2022-08-29T00:24:14.132Z,24.41
2022-08-29T00:26:40.566Z,24.43
2022-08-29T00:29:06.934Z,24.46
2022-08-29T00:31:33.334Z,24.42
2022-08-29T00:33:59.763Z,24.35
2022-08-29T00:36:26.148Z,24.31
2022-08-29T00:38:52.631Z,24.28
2022-08-29T00:41:18.996Z,24.26
2022-08-29T00:43:45.393Z,24.26
2022-08-29T00:46:11.813Z,24.27
2022-08-29T00:48:38.184Z,24.26
2022-08-29T00:51:04.551Z,24.27
2022-08-29T00:53:30.919Z,24.30
2022-08-29T00:55:57.310Z,24.31
2022-08-29T00:58:23.683Z,24.30
2022-08-29T01:00:50.089Z,24.31
2022-08-29T01:03:16.420Z,24.31
2022-08-29T01:05:42.806Z,24.32
2022-08-29T01:08:09.210Z,24.29
2022-08-29T01:10:35.625Z,24.27
2022-08-29T01:13:01.991Z,24.22
2022-08-29T01:15:28.357Z,24.17
2022-08-29T01:17:54.756Z,24.17
2022-08-29T01:20:21.127Z,24.17
2022-08-29T01:22:47.504Z,24.16
2022-08-29T01:25:13.877Z,24.11
2022-08-29T01:27:40.369Z,24.08
2022-08-29T01:30:06.734Z,24.02
2022-08-29T01:32:33.150Z,23.98
2022-08-29T01:34:59.514Z,23.93
2022-08-29T01:37:25.881Z,23.88
2022-08-29T01:39:52.251Z,23.86
2022-08-29T01:42:18.622Z,23.80
2022-08-29T01:44:45.023Z,23.73
2022-08-29T01:47:11.422Z,23.67
2022-08-29T01:49:40.486Z,23.55
2022-08-29T01:52:04.200Z,23.53
2022-08-29T01:54:30.593Z,23.56
2022-08-29T01:56:56.961Z,23.59
2022-08-29T01:59:23.357Z,23.62
2022-08-29T02:01:49.777Z,23.62
2022-08-29T02:04:16.106Z,23.60
2022-08-29T02:06:42.580Z,23.59
2022-08-29T02:09:11.251Z,23.54
2022-08-29T02:11:35.446Z,23.51
2022-08-29T02:14:01.878Z,23.48
2022-08-29T02:16:28.444Z,23.47
2022-08-29T02:18:54.672Z,23.43
2022-08-29T02:21:21.051Z,23.41
2022-08-29T02:23:47.438Z,23.41
2022-08-29T02:26:13.800Z,23.41
2022-08-29T02:28:40.166Z,23.34
2022-08-29T02:31:06.577Z,23.34
2022-08-29T02:33:32.936Z,23.34
2022-08-29T02:35:59.362Z,23.34
2022-08-29T02:38:25.724Z,23.31
2022-08-29T02:40:52.086Z,23.31
2022-08-29T02:43:18.457Z,23.30
2022-08-29T02:45:44.894Z,23.30
2022-08-29T02:48:11.315Z,23.27
2022-08-29T02:50:37.762Z,23.23
2022-08-29T02:53:04.131Z,23.19
2022-08-29T02:55:30.631Z,23.13
2022-08-29T02:57:57.064Z,23.08
2022-08-29T03:00:23.496Z,23.10
2022-08-29T03:02:49.862Z,23.10
2022-08-29T03:05:16.257Z,23.12
2022-08-29T03:07:42.689Z,23.12
2022-08-29T03:10:09.061Z,23.11
2022-08-29T03:12:35.442Z,23.09
2022-08-29T03:15:01.880Z,23.09
2022-08-29T03:17:28.251Z,23.10
2022-08-29T03:19:54.649Z,23.13
2022-08-29T03:22:21.032Z,23.16
2022-08-29T03:24:47.517Z,23.17
2022-08-29T03:27:13.916Z,23.18
2022-08-29T03:29:40.382Z,23.17
2022-08-29T03:32:06.751Z,23.14
2022-08-29T03:34:33.139Z,23.07
2022-08-29T03:36:59.585Z,23.03
2022-08-29T03:39:25.965Z,22.96
2022-08-29T03:41:52.352Z,22.86
2022-08-29T03:44:18.742Z,22.78
2022-08-29T03:46:45.153Z,22.78
2022-08-29T03:49:11.544Z,22.79
2022-08-29T03:51:37.969Z,22.78
2022-08-29T03:54:04.354Z,22.83
2022-08-29T03:56:30.722Z,22.88
2022-08-29T03:58:57.169Z,22.88
2022-08-29T04:01:23.572Z,22.87
2022-08-29T04:03:49.916Z,22.89
2022-08-29T04:06:16.360Z,22.91
2022-08-29T04:08:42.744Z,22.92
2022-08-29T04:11:09.235Z,22.92
2022-08-29T04:13:35.595Z,22.92
2022-08-29T04:16:02.043Z,22.92
2022-08-29T04:18:28.429Z,22.92
2022-08-29T04:20:54.861Z,22.89
2022-08-29T04:23:21.242Z,22.86
2022-08-29T04:25:47.721Z,22.87
2022-08-29T04:28:14.248Z,22.89
2022-08-29T04:30:40.494Z,22.95
2022-08-29T04:33:06.860Z,23.01
2022-08-29T04:35:33.224Z,23.05
2022-08-29T04:37:59.693Z,23.05
2022-08-29T04:40:26.146Z,23.01
2022-08-29T04:42:52.456Z,22.97
2022-08-29T04:45:18.842Z,22.97
2022-08-29T04:47:45.319Z,23.00
2022-08-29T04:50:11.766Z,23.05
2022-08-29T04:52:38.131Z,23.13
2022-08-29T04:55:04.553Z,23.22
2022-08-29T04:57:30.911Z,23.32
2022-08-29T04:59:57.287Z,23.40
2022-08-29T05:02:23.729Z,23.50
2022-08-29T05:04:50.081Z,23.56
2022-08-29T05:07:16.476Z,23.59
2022-08-29T05:09:42.944Z,23.62
2022-08-29T05:12:10.354Z,23.63
2022-08-29T05:14:35.878Z,23.57
2022-08-29T05:17:02.289Z,23.51
2022-08-29T05:19:34.561Z,23.48
2022-08-29T05:21:57.351Z,23.47
2022-08-29T05:24:23.746Z,23.49
2022-08-29T05:26:50.187Z,23.55
2022-08-29T05:29:16.571Z,23.67
2022-08-29T05:31:45.398Z,23.82
2022-08-29T05:34:27.882Z,24.00
2022-08-29T05:36:35.743Z,24.15
2022-08-29T05:39:02.127Z,24.27
2022-08-29T05:41:28.522Z,24.29
2022-08-29T05:43:54.887Z,24.35
2022-08-29T05:46:21.300Z,24.41
2022-08-29T05:48:47.677Z,24.34
2022-08-29T05:51:14.057Z,24.26
2022-08-29T05:53:40.548Z,24.33
2022-08-29T05:56:06.947Z,24.48
2022-08-29T05:58:33.412Z,24.61
2022-08-29T06:00:59.774Z,24.69
2022-08-29T06:03:26.275Z,24.81
2022-08-29T06:05:52.555Z,24.86
2022-08-29T06:08:18.945Z,24.99
2022-08-29T06:10:45.480Z,25.17
2022-08-29T06:13:11.849Z,25.32
2022-08-29T06:15:38.283Z,25.52
2022-08-29T06:18:04.675Z,25.68
2022-08-29T06:20:31.107Z,25.92
2022-08-29T06:22:57.472Z,26.18
2022-08-29T06:25:39.242Z,26.45
2022-08-29T06:27:50.219Z,26.61
2022-08-29T06:30:16.605Z,26.84
2022-08-29T06:32:42.985Z,27.05
2022-08-29T06:35:09.369Z,27.24
2022-08-29T06:37:35.733Z,27.37
2022-08-29T06:40:02.135Z,27.61
2022-08-29T06:42:28.814Z,27.72
2022-08-29T06:44:55.029Z,27.77
2022-08-29T06:47:21.394Z,27.89
2022-08-29T06:49:47.820Z,28.02
2022-08-29T06:52:14.222Z,28.09
2022-08-29T06:54:40.612Z,28.19
2022-08-29T06:57:07.090Z,28.25
2022-08-29T06:59:33.455Z,28.38
2022-08-29T07:01:59.914Z,28.44
2022-08-29T07:04:26.647Z,28.39
2022-08-29T07:06:52.670Z,28.33
2022-08-29T07:09:19.067Z,28.33
2022-08-29T07:11:45.485Z,28.34
2022-08-29T07:14:11.919Z,28.35
2022-08-29T07:16:38.322Z,28.31
2022-08-29T07:19:04.688Z,28.24
2022-08-29T07:21:31.109Z,28.27
2022-08-29T07:23:57.481Z,28.38
2022-08-29T07:26:23.876Z,28.38
2022-08-29T07:28:50.249Z,28.48
2022-08-29T07:31:16.757Z,28.68
2022-08-29T07:33:43.074Z,29.00
2022-08-29T07:36:09.438Z,29.15
2022-08-29T07:38:35.806Z,29.03
2022-08-29T07:41:02.271Z,28.86
2022-08-29T07:43:28.818Z,28.89
2022-08-29T07:45:55.086Z,29.09
2022-08-29T07:48:23.125Z,29.63
2022-08-29T07:50:47.801Z,30.18
2022-08-29T07:53:14.405Z,30.67
2022-08-29T07:55:40.658Z,30.95
2022-08-29T07:58:07.039Z,31.21
2022-08-29T08:00:33.443Z,31.45
2022-08-29T08:02:59.900Z,31.64
2022-08-29T08:05:26.301Z,31.98
2022-08-29T08:07:55.622Z,32.24
2022-08-29T08:10:19.051Z,32.35
2022-08-29T08:12:45.488Z,32.41
2022-08-29T08:15:11.883Z,32.52
2022-08-29T08:17:43.387Z,32.66
2022-08-29T08:20:04.745Z,32.95
2022-08-29T08:22:31.141Z,32.93
2022-08-29T08:24:57.562Z,32.90
2022-08-29T08:27:23.986Z,32.99
2022-08-29T08:29:50.420Z,33.04
2022-08-29T08:32:16.792Z,33.18
2022-08-29T08:34:43.193Z,33.29
2022-08-29T08:37:09.615Z,33.39
2022-08-29T08:39:35.993Z,33.56
2022-08-29T08:42:02.486Z,33.57
2022-08-29T08:44:28.877Z,33.69
2022-08-29T08:46:55.250Z,33.84
2022-08-29T08:49:21.658Z,33.90
2022-08-29T08:51:48.030Z,34.01
2022-08-29T08:54:14.446Z,34.01
2022-08-29T08:56:40.842Z,34.10
2022-08-29T08:59:07.309Z,34.35
2022-08-29T09:01:33.739Z,34.34
2022-08-29T09:04:00.052Z,34.35
2022-08-29T09:06:26.421Z,34.52
2022-08-29T09:08:52.836Z,34.59
2022-08-29T09:11:19.266Z,34.65
2022-08-29T09:13:45.703Z,34.57
2022-08-29T09:16:12.118Z,34.58
2022-08-29T09:18:38.461Z,34.70
2022-08-29T09:21:10.031Z,34.90
2022-08-29T09:23:31.343Z,34.96
2022-08-29T09:25:57.735Z,34.96
2022-08-29T09:28:24.097Z,34.92
2022-08-29T09:30:50.501Z,34.86
2022-08-29T09:33:17.070Z,34.72
2022-08-29T09:35:43.238Z,34.60
2022-08-29T09:38:09.617Z,34.57
2022-08-29T09:40:36.013Z,34.63
2022-08-29T09:43:02.358Z,34.71
2022-08-29T09:45:28.830Z,34.86
2022-08-29T09:47:55.126Z,34.87
2022-08-29T09:50:21.634Z,34.91
2022-08-29T09:52:48.002Z,34.85
2022-08-29T09:55:14.363Z,34.89
2022-08-29T09:57:40.773Z,34.86
2022-08-29T10:00:07.144Z,34.71
2022-08-29T10:02:33.590Z,34.74
2022-08-29T10:04:59.977Z,34.75
2022-08-29T10:07:26.360Z,34.84
2022-08-29T10:09:52.987Z,34.96
2022-08-29T10:12:19.482Z,34.94
2022-08-29T10:14:50.505Z,34.80
2022-08-29T10:17:12.319Z,34.63
2022-08-29T10:19:38.704Z,34.49
2022-08-29T10:22:05.065Z,34.49
2022-08-29T10:24:31.432Z,34.64
2022-08-29T10:26:58.181Z,34.46
2022-08-29T10:29:26.572Z,34.30
2022-08-29T10:31:51.080Z,34.07
2022-08-29T10:34:17.478Z,33.75
2022-08-29T10:36:43.916Z,33.46
2022-08-29T10:39:10.296Z,33.23
2022-08-29T10:41:36.681Z,33.20
2022-08-29T10:44:03.113Z,33.15
2022-08-29T10:46:29.427Z,33.16
2022-08-29T10:48:55.825Z,33.06
2022-08-29T10:51:22.223Z,33.00
2022-08-29T10:53:48.599Z,32.55
2022-08-29T10:56:15.014Z,32.21
2022-08-29T10:58:41.395Z,31.87
2022-08-29T11:01:09.437Z,31.55
2022-08-29T11:03:34.281Z,31.31
2022-08-29T11:06:00.653Z,31.18
2022-08-29T11:08:27.037Z,31.10
2022-08-29T11:10:53.441Z,31.01
2022-08-29T11:13:19.797Z,30.90
2022-08-29T11:15:48.356Z,30.75
2022-08-29T11:18:12.665Z,30.71
2022-08-29T11:20:39.034Z,30.79
2022-08-29T11:23:05.400Z,30.77
2022-08-29T11:25:31.858Z,30.82
2022-08-29T11:27:58.273Z,30.92
2022-08-29T11:30:24.656Z,30.93
2022-08-29T11:32:51.019Z,30.94
2022-08-29T11:35:18.002Z,31.05
2022-08-29T11:37:44.373Z,31.16
2022-08-29T11:40:10.938Z,31.21
2022-08-29T11:42:52.689Z,31.25
2022-08-29T11:45:03.635Z,31.43
2022-08-29T11:47:30.159Z,31.68
2022-08-29T11:49:56.528Z,31.89
2022-08-29T11:52:22.914Z,32.08
2022-08-29T11:54:49.281Z,32.21
2022-08-29T11:57:15.695Z,32.25
2022-08-29T11:59:42.089Z,32.20
2022-08-29T12:02:08.561Z,32.28
2022-08-29T12:04:35.016Z,32.29
2022-08-29T12:07:01.553Z,32.29
2022-08-29T12:09:27.783Z,32.35
2022-08-29T12:11:54.167Z,32.34
2022-08-29T12:14:20.567Z,32.32
2022-08-29T12:16:47.077Z,32.38
2022-08-29T12:19:13.387Z,32.35
2022-08-29T12:21:39.761Z,32.29
2022-08-29T12:24:06.120Z,32.20
2022-08-29T12:26:32.483Z,32.07
2022-08-29T12:28:58.911Z,32.03
2022-08-29T12:31:25.327Z,32.04
2022-08-29T12:33:51.686Z,32.00
2022-08-29T12:36:18.079Z,31.92
2022-08-29T12:38:44.466Z,31.84
2022-08-29T12:41:10.832Z,31.81
2022-08-29T12:43:37.301Z,31.79
2022-08-29T12:46:03.740Z,31.77
2022-08-29T12:48:30.173Z,31.77
2022-08-29T12:50:56.608Z,31.72
2022-08-29T12:53:22.986Z,31.51
2022-08-29T12:55:49.347Z,31.38
2022-08-29T12:58:15.882Z,31.21
2022-08-29T13:00:42.099Z,31.08
2022-08-29T13:03:09.500Z,30.98
2022-08-29T13:05:34.841Z,30.69
2022-08-29T13:08:01.236Z,30.43
2022-08-29T13:10:27.614Z,30.37
2022-08-29T13:12:53.994Z,30.35
2022-08-29T13:15:20.414Z,30.36
2022-08-29T13:17:46.855Z,30.26
2022-08-29T13:20:13.220Z,29.92
2022-08-29T13:22:39.827Z,29.85
2022-08-29T13:25:06.192Z,29.78
2022-08-29T13:27:32.582Z,29.69
2022-08-29T13:29:59.071Z,29.66
2022-08-29T13:32:25.402Z,29.50
2022-08-29T13:34:51.793Z,29.42
2022-08-29T13:37:20.067Z,29.42
2022-08-29T13:39:44.647Z,29.40
2022-08-29T13:42:11.019Z,29.34
2022-08-29T13:44:37.379Z,29.15
2022-08-29T13:47:03.847Z,29.09
2022-08-29T13:49:30.273Z,29.07
2022-08-29T13:51:56.671Z,29.03
2022-08-29T13:54:23.047Z,28.93
2022-08-29T13:56:49.409Z,28.91
2022-08-29T13:59:15.925Z,28.95
2022-08-29T14:04:34.463Z,29.07
2022-08-29T14:06:35.384Z,29.09
2022-08-29T14:09:01.727Z,29.16
2022-08-29T14:11:28.169Z,29.30
2022-08-29T14:13:54.617Z,29.18
2022-08-29T14:16:21.043Z,28.92
2022-08-29T14:18:47.343Z,28.83
2022-08-29T14:21:13.757Z,28.83
2022-08-29T14:23:40.121Z,28.79
2022-08-29T14:26:06.570Z,28.74
2022-08-29T14:28:35.747Z,28.70
2022-08-29T14:30:59.429Z,28.59
2022-08-29T14:33:25.821Z,28.57
2022-08-29T14:35:52.307Z,28.73
2022-08-29T14:38:18.949Z,28.81
2022-08-29T14:40:45.141Z,28.85
2022-08-29T14:43:11.602Z,28.90
2022-08-29T14:45:37.981Z,28.92
2022-08-29T14:48:04.367Z,28.95
2022-08-29T14:50:30.746Z,28.88
2022-08-29T14:52:57.117Z,28.86
2022-08-29T14:55:23.508Z,28.85
2022-08-29T14:57:49.869Z,28.82
2022-08-29T15:00:16.273Z,28.84
2022-08-29T15:02:42.691Z,28.86
2022-08-29T15:05:09.052Z,28.88
2022-08-29T15:07:35.517Z,28.78
2022-08-29T15:10:01.924Z,28.76
2022-08-29T15:12:28.390Z,28.81
2022-08-29T15:14:54.774Z,28.86
2022-08-29T15:17:21.144Z,28.82
2022-08-29T15:22:13.909Z,28.74
2022-08-29T15:24:40.280Z,28.74
2022-08-29T15:27:06.652Z,28.78
2022-08-29T15:29:33.039Z,28.73
2022-08-29T15:31:59.441Z,28.65
2022-08-29T15:34:25.806Z,28.68
2022-08-29T15:36:52.314Z,28.72
2022-08-29T15:39:18.673Z,28.69
2022-08-29T15:41:45.133Z,28.65
2022-08-29T15:44:11.535Z,28.63
2022-08-29T15:46:38.225Z,28.60
2022-08-29T15:49:04.301Z,28.61
2022-08-29T15:51:30.677Z,28.52
2022-08-29T15:53:57.073Z,28.42
2022-08-29T15:56:23.483Z,28.33
2022-08-29T15:58:49.867Z,28.28
2022-08-29T16:01:16.320Z,28.25
2022-08-29T16:03:42.656Z,28.28
2022-08-29T16:06:09.090Z,28.26
2022-08-29T16:08:35.439Z,28.23
2022-08-29T16:11:01.832Z,28.17
2022-08-29T16:13:28.254Z,28.12
2022-08-29T16:15:54.681Z,28.09
2022-08-29T16:18:20.981Z,28.06
2022-08-29T16:20:47.418Z,28.12
2022-08-29T16:23:13.871Z,28.14
2022-08-29T16:25:40.239Z,28.14
2022-08-29T16:28:06.643Z,28.10
2022-08-29T16:30:33.054Z,28.11
2022-08-29T16:32:59.396Z,28.06
2022-08-29T16:35:25.883Z,28.03
2022-08-29T16:38:02.270Z,28.01
2022-08-29T16:40:18.808Z,27.91
2022-08-29T16:42:55.441Z,27.92
2022-08-29T16:45:11.622Z,27.90
2022-08-29T16:47:37.991Z,27.85
2022-08-29T16:50:04.481Z,27.78
2022-08-29T16:52:30.891Z,27.71
2022-08-29T16:54:57.257Z,27.59
2022-08-29T16:57:23.678Z,27.48
2022-08-29T16:59:50.116Z,27.46
2022-08-29T17:02:16.561Z,27.46
2022-08-29T17:04:42.866Z,27.46
2022-08-29T17:07:09.308Z,27.44
2022-08-29T17:09:35.713Z,27.41
2022-08-29T17:12:03.461Z,27.40
2022-08-29T17:14:28.441Z,27.40
2022-08-29T17:16:54.866Z,27.40
2022-08-29T17:19:21.193Z,27.39
2022-08-29T17:21:47.574Z,27.43
2022-08-29T17:24:13.950Z,27.47
2022-08-29T17:26:40.967Z,27.41
2022-08-29T17:29:06.694Z,27.40
2022-08-29T17:31:36.842Z,27.45
2022-08-29T17:33:59.459Z,27.46
2022-08-29T17:36:25.890Z,27.42
2022-08-29T17:38:52.330Z,27.40
2022-08-29T17:41:18.718Z,27.31
2022-08-29T17:43:45.186Z,27.24
2022-08-29T17:46:11.777Z,27.23
2022-08-29T17:48:38.064Z,27.20
2022-08-29T17:51:04.449Z,27.19
2022-08-29T17:53:30.829Z,27.15
2022-08-29T17:55:57.245Z,27.16
2022-08-29T17:58:23.631Z,27.21
2022-08-29T18:00:50.063Z,27.22
2022-08-29T18:03:16.545Z,27.19
2022-08-29T18:05:42.940Z,27.11
2022-08-29T18:08:09.410Z,27.04
2022-08-29T18:10:35.771Z,26.99
2022-08-29T18:13:02.148Z,26.94
2022-08-29T18:15:28.621Z,26.90
2022-08-29T18:17:54.986Z,26.85
2022-08-29T18:20:21.381Z,26.78
2022-08-29T18:22:47.747Z,26.77
2022-08-29T18:25:14.196Z,26.73
2022-08-29T18:27:43.609Z,26.69
2022-08-29T18:30:06.954Z,26.67
2022-08-29T18:32:37.334Z,26.65
2022-08-29T18:35:00.899Z,26.63
2022-08-29T18:37:26.313Z,26.58
2022-08-29T18:39:52.717Z,26.56
2022-08-29T18:42:38.805Z,26.55
2022-08-29T18:44:45.553Z,26.53
2022-08-29T18:47:11.922Z,26.50
2022-08-29T18:49:38.371Z,26.48
2022-08-29T18:52:04.758Z,26.42
2022-08-29T18:54:31.230Z,26.39
2022-08-29T18:56:57.605Z,26.35
2022-08-29T18:59:23.999Z,26.31
2022-08-29T19:01:50.441Z,26.30
2022-08-29T19:04:16.768Z,26.28
2022-08-29T19:06:43.152Z,26.26
2022-08-29T19:09:09.631Z,26.24
2022-08-29T19:11:36.071Z,26.21
2022-08-29T19:14:02.446Z,26.19
2022-08-29T19:16:28.926Z,26.18
2022-08-29T19:18:55.362Z,26.20
2022-08-29T19:21:21.799Z,26.18
2022-08-29T19:23:52.501Z,26.17
2022-08-29T19:26:14.666Z,26.14
2022-08-29T19:28:41.092Z,26.09
2022-08-29T19:31:07.451Z,26.08
2022-08-29T19:33:33.856Z,26.08
2022-08-29T19:36:00.215Z,26.06
2022-08-29T19:38:26.631Z,26.04
2022-08-29T19:40:53.096Z,25.98
2022-08-29T19:43:19.711Z,25.98
2022-08-29T19:45:45.847Z,25.98
2022-08-29T19:48:15.427Z,26.03
2022-08-29T19:50:38.688Z,26.06
2022-08-29T19:53:05.049Z,26.06
2022-08-29T19:55:31.457Z,26.03
2022-08-29T19:57:57.885Z,26.00
2022-08-29T20:00:24.280Z,25.95
2022-08-29T20:02:50.664Z,25.95
2022-08-29T20:05:17.054Z,25.91
2022-08-29T20:07:43.447Z,25.88
2022-08-29T20:10:09.818Z,25.87
2022-08-29T20:12:36.201Z,25.84
2022-08-29T20:15:02.597Z,25.83
2022-08-29T20:17:30.357Z,25.83
2022-08-29T20:19:55.377Z,25.81
2022-08-29T20:22:21.758Z,25.77
2022-08-29T20:24:48.150Z,25.72
2022-08-29T20:27:14.531Z,25.74
2022-08-29T20:29:40.902Z,25.72
2022-08-29T20:32:07.270Z,25.68
2022-08-29T20:34:33.673Z,25.72
2022-08-29T20:37:00.098Z,25.70
2022-08-29T20:39:26.464Z,25.72
2022-08-29T20:41:52.827Z,25.72
2022-08-29T20:44:19.233Z,25.74
2022-08-29T20:46:45.645Z,25.77
2022-08-29T20:49:11.987Z,25.78
2022-08-29T20:51:38.375Z,25.76
2022-08-29T20:54:04.764Z,25.75
2022-08-29T20:56:31.156Z,25.72
2022-08-29T20:58:57.571Z,25.71
2022-08-29T21:01:24.042Z,25.67
2022-08-29T21:03:50.457Z,25.62
2022-08-29T21:06:16.841Z,25.60
2022-08-29T21:08:43.314Z,25.67
2022-08-29T21:11:09.751Z,25.71
2022-08-29T21:13:36.123Z,25.73
2022-08-29T21:16:02.556Z,25.74
2022-08-29T21:18:28.883Z,25.76
2022-08-29T21:20:55.279Z,25.81
2022-08-29T21:23:21.651Z,25.81
2022-08-29T21:25:48.038Z,25.79
2022-08-29T21:28:14.442Z,25.76
2022-08-29T21:30:44.903Z,25.75
2022-08-29T21:33:07.191Z,25.76
2022-08-29T21:35:33.591Z,25.77
2022-08-29T21:37:59.962Z,25.79
2022-08-29T21:40:26.391Z,25.79
2022-08-29T21:42:52.725Z,25.83
2022-08-29T21:45:19.097Z,25.85
2022-08-29T21:47:45.470Z,25.82
2022-08-29T21:50:11.862Z,25.80
2022-08-29T21:52:38.252Z,25.76
2022-08-29T21:55:04.725Z,25.71
2022-08-29T21:57:31.157Z,25.71
2022-08-29T21:59:57.694Z,25.66
2022-08-29T22:02:24.181Z,25.58
2022-08-29T22:04:50.427Z,25.54
2022-08-29T22:07:16.844Z,25.49
2022-08-29T22:09:43.200Z,25.44
2022-08-29T22:12:09.655Z,25.42
2022-08-29T22:14:36.085Z,25.38
2022-08-29T22:17:02.456Z,25.34
2022-08-29T22:19:28.811Z,25.36
2022-08-29T22:21:55.185Z,25.42
2022-08-29T22:24:21.554Z,25.40
2022-08-29T22:26:47.936Z,25.34
2022-08-29T22:29:14.358Z,25.30
2022-08-29T22:31:42.589Z,25.27
2022-08-29T22:34:07.096Z,25.24
2022-08-29T22:36:33.467Z,25.22
2022-08-29T22:38:59.902Z,25.21
2022-08-29T22:41:26.302Z,25.20
2022-08-29T22:44:16.561Z,25.15
2022-08-29T22:46:19.123Z,25.13
2022-08-29T22:48:45.533Z,25.13
2022-08-29T22:51:11.967Z,25.18
2022-08-29T22:53:38.323Z,25.17
2022-08-29T22:56:04.694Z,25.15
2022-08-29T22:58:31.068Z,25.10
2022-08-29T23:00:57.460Z,25.08
2022-08-29T23:03:23.879Z,25.07
2022-08-29T23:05:50.251Z,25.05
2022-08-29T23:08:16.634Z,25.03
2022-08-29T23:10:43.126Z,25.00
2022-08-29T23:13:09.517Z,24.97
2022-08-29T23:15:35.887Z,24.96
2022-08-29T23:18:02.319Z,24.95
2022-08-29T23:20:29.123Z,24.95
2022-08-29T23:22:55.121Z,24.91
2022-08-29T23:25:21.490Z,24.86
2022-08-29T23:27:47.888Z,24.84
2022-08-29T23:30:14.256Z,24.83
2022-08-29T23:32:40.655Z,24.82
2022-08-29T23:35:07.043Z,24.80
2022-08-29T23:37:33.479Z,24.78
2022-08-29T23:39:59.921Z,24.74
2022-08-29T23:42:26.239Z,24.65
2022-08-29T23:44:52.618Z,24.56
2022-08-29T23:47:18.972Z,24.54
2022-08-29T23:49:45.346Z,24.54
2022-08-29T23:52:11.714Z,24.52
2022-08-29T23:54:38.132Z,24.52
2022-08-29T23:57:04.484Z,24.52
2022-08-29T23:59:30.854Z,24.50
